createdAt,value
2022-08-12T00:00:12.846Z,47.25
2022-08-12T00:03:21.265Z,47.39
2022-08-12T00:06:10.153Z,47.56
2022-08-12T00:08:58.488Z,47.58
2022-08-12T00:11:47.124Z,47.51
2022-08-12T00:14:35.045Z,47.58
2022-08-12T00:17:27.197Z,47.72
2022-08-12T00:20:17.647Z,47.65
2022-08-12T00:23:08.758Z,47.78
2022-08-12T00:26:21.758Z,47.77
2022-08-12T00:29:14.175Z,47.89
2022-08-12T00:32:04.473Z,47.93
2022-08-12T00:34:54.057Z,48.05
2022-08-12T00:37:43.487Z,48.11
2022-08-12T00:40:32.826Z,48.24
2022-08-12T00:43:04.816Z,48.10
2022-08-12T00:45:55.947Z,48.13
2022-08-12T00:48:28.248Z,48.52
2022-08-12T00:51:02.528Z,48.37
2022-08-12T00:53:35.637Z,48.50
2022-08-12T00:56:08.451Z,48.49
2022-08-12T00:58:49.393Z,48.46
2022-08-12T01:01:21.692Z,48.61
2022-08-12T01:04:10.619Z,48.66
2022-08-12T01:07:01.246Z,48.75
2022-08-12T01:09:49.065Z,48.88
2022-08-12T01:12:20.465Z,49.02
2022-08-12T01:14:55.111Z,48.96
2022-08-12T01:17:27.817Z,49.04
2022-08-12T01:20:01.869Z,49.17
2022-08-12T01:23:01.234Z,49.15
2022-08-12T01:25:41.542Z,49.36
2022-08-12T01:28:31.546Z,49.35
2022-08-12T01:31:06.588Z,49.45
2022-08-12T01:33:57.905Z,49.49
2022-08-12T01:36:29.976Z,49.52
2022-08-12T01:39:03.022Z,49.52
2022-08-12T01:41:38.234Z,49.48
2022-08-12T01:44:11.346Z,49.56
2022-08-12T01:47:04.250Z,49.61
2022-08-12T01:50:33.697Z,49.68
2022-08-12T01:53:10.937Z,49.75
2022-08-12T01:55:44.559Z,49.82
2022-08-12T01:58:27.822Z,49.80
2022-08-12T02:01:04.008Z,49.92
2022-08-12T02:03:52.474Z,49.97
2022-08-12T02:06:55.525Z,50.09
2022-08-12T02:09:59.197Z,50.25
2022-08-12T02:12:55.166Z,50.13
2022-08-12T02:15:43.484Z,50.26
2022-08-12T02:18:30.944Z,50.21
2022-08-12T02:21:08.698Z,50.33
2022-08-12T02:23:41.192Z,50.37
2022-08-12T02:26:16.345Z,50.48
2022-08-12T02:28:48.185Z,50.46
2022-08-12T02:31:19.245Z,50.58
2022-08-12T02:33:53.025Z,50.62
2022-08-12T02:36:25.573Z,50.69
2022-08-12T02:39:01.804Z,50.86
2022-08-12T02:41:34.567Z,50.89
2022-08-12T02:44:11.300Z,50.82
2022-08-12T02:46:50.756Z,51.02
2022-08-12T02:49:27.382Z,51.09
2022-08-12T02:51:58.604Z,51.09
2022-08-12T02:54:29.726Z,51.18
2022-08-12T02:57:01.256Z,51.22
2022-08-12T02:59:32.865Z,51.37
2022-08-12T03:02:05.148Z,51.47
2022-08-12T03:04:48.298Z,51.57
2022-08-12T03:07:56.217Z,51.64
2022-08-12T03:10:36.873Z,51.82
2022-08-12T03:13:09.967Z,51.87
2022-08-12T03:15:41.301Z,51.93
2022-08-12T03:18:26.860Z,51.89
2022-08-12T03:21:04.034Z,51.92
2022-08-12T03:23:34.809Z,52.04
2022-08-12T03:26:06.026Z,52.15
2022-08-12T03:28:54.595Z,52.16
2022-08-12T03:31:30.445Z,52.30
2022-08-12T03:34:07.714Z,52.37
2022-08-12T03:36:41.628Z,52.37
2022-08-12T03:39:36.377Z,52.69
2022-08-12T03:42:34.468Z,52.74
2022-08-12T03:45:35.584Z,52.90
2022-08-12T03:48:38.262Z,53.01
2022-08-12T03:51:27.738Z,53.14
2022-08-12T03:54:16.046Z,53.15
2022-08-12T03:57:03.784Z,53.25
2022-08-12T03:59:51.787Z,53.31
2022-08-12T04:02:24.755Z,53.42
2022-08-12T04:04:55.414Z,53.42
2022-08-12T04:07:26.025Z,53.47
2022-08-12T04:09:56.815Z,53.50
2022-08-12T04:12:46.573Z,53.69
2022-08-12T04:15:20.445Z,53.74
2022-08-12T04:18:06.482Z,53.74
2022-08-12T04:20:38.885Z,53.93
2022-08-12T04:23:16.774Z,53.83
2022-08-12T04:25:54.552Z,53.97
2022-08-12T04:28:38.296Z,54.06
2022-08-12T04:31:13.395Z,54.20
2022-08-12T04:33:45.556Z,54.07
2022-08-12T04:36:16.215Z,54.19
2022-08-12T04:38:46.894Z,54.27
2022-08-12T04:41:19.479Z,54.31
2022-08-12T04:43:54.472Z,54.43
2022-08-12T04:46:34.378Z,54.59
2022-08-12T04:49:06.722Z,54.69
2022-08-12T04:51:37.256Z,54.78
2022-08-12T04:54:07.872Z,54.82
2022-08-12T04:56:38.565Z,54.90
2022-08-12T04:59:09.358Z,55.03
2022-08-12T05:01:39.951Z,54.96
2022-08-12T05:04:12.159Z,54.94
2022-08-12T05:06:42.980Z,55.06
2022-08-12T05:09:13.802Z,55.28
2022-08-12T05:11:53.565Z,55.19
2022-08-12T05:14:24.905Z,55.34
2022-08-12T05:16:55.713Z,55.29
2022-08-12T05:19:30.745Z,55.40
2022-08-12T05:22:04.284Z,55.40
2022-08-12T05:24:34.963Z,55.43
2022-08-12T05:27:05.853Z,55.50
2022-08-12T05:30:07.678Z,55.58
2022-08-12T05:32:28.346Z,55.65
2022-08-12T05:34:58.777Z,55.84
2022-08-12T05:37:30.063Z,55.92
2022-08-12T05:40:00.731Z,55.88
2022-08-12T05:42:34.560Z,55.88
2022-08-12T05:45:05.648Z,55.94
2022-08-12T05:47:52.334Z,55.67
2022-08-12T05:50:24.878Z,55.69
2022-08-12T05:52:58.453Z,55.57
2022-08-12T05:55:32.989Z,55.45
2022-08-12T05:58:08.091Z,55.47
2022-08-12T06:00:39.316Z,55.49
2022-08-12T06:03:09.767Z,55.50
2022-08-12T06:05:42.983Z,55.46
2022-08-12T06:08:28.915Z,55.59
2022-08-12T06:10:59.465Z,55.43
2022-08-12T06:13:53.761Z,55.43
2022-08-12T06:16:27.551Z,55.54
2022-08-12T06:18:57.841Z,55.54
2022-08-12T06:21:28.866Z,55.60
2022-08-12T06:24:09.263Z,55.61
2022-08-12T06:26:43.931Z,55.62
2022-08-12T06:30:07.225Z,55.75
2022-08-12T06:32:30.517Z,55.91
2022-08-12T06:35:25.738Z,55.72
2022-08-12T06:38:27.496Z,55.59
2022-08-12T06:41:38.402Z,55.47
2022-08-12T06:44:30.407Z,55.60
2022-08-12T06:47:22.453Z,55.50
2022-08-12T06:50:05.575Z,55.52
2022-08-12T06:53:00.882Z,55.53
2022-08-12T06:55:56.783Z,55.89
2022-08-12T06:58:41.989Z,55.89
2022-08-12T07:01:32.702Z,55.79
2022-08-12T07:04:39.912Z,55.94
2022-08-12T07:07:48.337Z,55.81
2022-08-12T07:10:35.399Z,55.90
2022-08-12T07:13:22.573Z,55.74
2022-08-12T07:16:01.937Z,55.80
2022-08-12T07:18:42.526Z,55.85
2022-08-12T07:21:59.860Z,55.75
2022-08-12T07:24:36.456Z,56.01
2022-08-12T07:27:25.144Z,56.09
2022-08-12T07:30:24.682Z,56.08
2022-08-12T07:33:26.865Z,56.02
2022-08-12T07:36:14.294Z,56.22
2022-08-12T07:38:59.388Z,55.92
2022-08-12T07:41:39.732Z,56.32
2022-08-12T07:44:24.694Z,56.25
2022-08-12T07:47:22.483Z,55.66
2022-08-12T07:50:23.575Z,55.94
2022-08-12T07:53:21.444Z,55.98
2022-08-12T07:56:18.676Z,55.61
2022-08-12T07:59:01.506Z,55.81
2022-08-12T08:01:55.081Z,55.45
2022-08-12T08:05:01.183Z,55.53
2022-08-12T08:08:03.300Z,55.57
2022-08-12T08:11:14.056Z,55.48
2022-08-12T08:14:29.745Z,55.42
2022-08-12T08:17:04.178Z,55.16
2022-08-12T08:20:03.299Z,55.08
2022-08-12T08:22:41.759Z,55.19
2022-08-12T08:25:36.301Z,55.18
2022-08-12T08:28:12.927Z,54.92
2022-08-12T08:30:46.107Z,54.76
2022-08-12T08:33:24.623Z,54.37
2022-08-12T08:36:16.407Z,54.55
2022-08-12T08:38:58.283Z,54.21
2022-08-12T08:42:16.165Z,53.97
2022-08-12T08:44:42.572Z,53.69
2022-08-12T08:47:14.888Z,53.60
2022-08-12T08:49:45.964Z,53.38
2022-08-12T08:52:40.111Z,53.03
2022-08-12T08:55:06.932Z,52.81
2022-08-12T08:57:43.774Z,52.89
2022-08-12T09:00:19.451Z,52.94
2022-08-12T09:02:58.583Z,52.69
2022-08-12T09:05:43.213Z,52.48
2022-08-12T09:12:06.673Z,52.25
2022-08-12T09:14:29.112Z,51.71
2022-08-12T09:17:00.906Z,51.55
2022-08-12T09:19:31.880Z,51.24
2022-08-12T09:22:09.092Z,51.33
2022-08-12T09:24:55.585Z,51.28
2022-08-12T09:28:03.345Z,50.98
2022-08-12T09:30:59.289Z,50.76
2022-08-12T09:37:55.142Z,50.29
2022-08-12T09:41:02.474Z,50.35
2022-08-12T09:44:38.863Z,49.94
2022-08-12T09:47:45.880Z,49.62
2022-08-12T09:50:58.369Z,49.67
2022-08-12T09:53:40.312Z,49.41
2022-08-12T09:57:00.304Z,49.38
2022-08-12T10:00:17.552Z,49.46
2022-08-12T10:03:03.351Z,48.76
2022-08-12T10:06:19.404Z,48.74
2022-08-12T10:08:31.385Z,48.36
2022-08-12T10:11:23.250Z,48.31
2022-08-12T10:13:57.228Z,48.09
2022-08-12T10:16:36.939Z,48.06
2022-08-12T10:19:17.638Z,47.89
2022-08-12T10:22:05.836Z,47.56
2022-08-12T10:25:17.846Z,47.31
2022-08-12T10:28:24.722Z,47.34
2022-08-12T10:31:06.685Z,47.29
2022-08-12T10:34:06.398Z,47.03
2022-08-12T10:36:44.422Z,46.66
2022-08-12T10:40:01.781Z,46.55
2022-08-12T10:43:00.637Z,46.53
2022-08-12T10:45:32.708Z,46.21
2022-08-12T10:48:21.595Z,45.94
2022-08-12T10:51:03.516Z,45.73
2022-08-12T10:53:46.796Z,45.57
2022-08-12T10:58:14.138Z,45.54
2022-08-12T11:00:55.025Z,45.12
2022-08-12T11:04:26.950Z,45.27
2022-08-12T11:07:10.202Z,44.98
2022-08-12T11:09:56.134Z,44.81
2022-08-12T11:12:55.610Z,44.83
2022-08-12T11:15:18.937Z,44.67
2022-08-12T11:17:55.763Z,44.63
2022-08-12T11:20:30.754Z,44.37
2022-08-12T11:23:26.083Z,44.41
2022-08-12T11:25:59.661Z,44.32
2022-08-12T11:28:38.238Z,44.07
2022-08-12T11:31:13.329Z,44.35
2022-08-12T11:34:05.191Z,44.24
2022-08-12T11:36:39.430Z,44.02
2022-08-12T11:39:13.377Z,43.85
2022-08-12T11:41:44.134Z,44.32
2022-08-12T11:44:37.233Z,43.96
2022-08-12T11:47:09.515Z,43.92
2022-08-12T11:49:40.375Z,43.87
2022-08-12T11:52:55.931Z,43.88
2022-08-12T11:55:16.244Z,43.42
2022-08-12T11:58:34.154Z,43.44
2022-08-12T12:04:08.812Z,43.28
2022-08-12T12:06:49.897Z,43.22
2022-08-12T12:09:25.903Z,43.17
2022-08-12T12:11:57.075Z,43.13
2022-08-12T12:14:38.081Z,43.07
2022-08-12T12:17:10.486Z,42.87
2022-08-12T12:19:46.132Z,42.74
2022-08-12T12:22:27.140Z,42.80
2022-08-12T12:26:07.080Z,42.29
2022-08-12T12:28:37.155Z,42.47
2022-08-12T12:32:09.022Z,42.34
2022-08-12T12:34:05.307Z,42.32
2022-08-12T12:36:36.466Z,42.38
2022-08-12T12:39:10.420Z,42.42
2022-08-12T12:42:42.021Z,42.31
2022-08-12T12:44:53.736Z,42.12
2022-08-12T12:47:29.936Z,42.11
2022-08-12T12:50:11.550Z,41.97
2022-08-12T12:54:08.614Z,41.97
2022-08-12T12:56:34.550Z,41.92
2022-08-12T12:59:06.550Z,41.75
2022-08-12T13:01:42.010Z,41.95
2022-08-12T13:04:14.489Z,41.96
2022-08-12T13:06:51.074Z,41.72
2022-08-12T13:09:22.925Z,41.59
2022-08-12T13:11:54.346Z,41.64
2022-08-12T13:14:31.205Z,41.64
2022-08-12T13:17:03.287Z,41.75
2022-08-12T13:19:43.369Z,41.62
2022-08-12T13:22:34.253Z,41.58
2022-08-12T13:25:07.015Z,41.54
2022-08-12T13:27:57.463Z,41.62
2022-08-12T13:30:43.244Z,42.08
2022-08-12T13:34:33.151Z,41.96
2022-08-12T13:37:13.231Z,41.86
2022-08-12T13:39:58.906Z,41.88
2022-08-12T13:42:30.219Z,41.76
2022-08-12T13:45:03.076Z,41.53
2022-08-12T13:48:02.290Z,41.74
2022-08-12T13:50:39.240Z,41.97
2022-08-12T13:53:23.877Z,41.68
2022-08-12T13:56:01.319Z,41.48
2022-08-12T13:58:34.883Z,41.19
2022-08-12T14:01:08.812Z,41.48
2022-08-12T14:03:49.662Z,41.84
2022-08-12T14:06:26.046Z,41.62
2022-08-12T14:09:15.730Z,41.70
2022-08-12T14:11:59.092Z,41.61
2022-08-12T14:14:31.341Z,41.41
2022-08-12T14:17:10.829Z,41.58
2022-08-12T14:20:01.513Z,41.56
2022-08-12T14:22:33.020Z,41.65
2022-08-12T14:25:03.844Z,41.38
2022-08-12T14:28:04.376Z,41.35
2022-08-12T14:30:29.171Z,41.51
2022-08-12T14:33:04.103Z,41.39
2022-08-12T14:35:44.669Z,41.52
2022-08-12T14:38:21.037Z,41.49
2022-08-12T14:41:03.751Z,41.31
2022-08-12T14:43:58.787Z,41.33
2022-08-12T14:46:32.176Z,41.66
2022-08-12T14:49:11.472Z,41.29
2022-08-12T14:52:43.303Z,41.36
2022-08-12T14:56:58.958Z,41.33
2022-08-12T14:57:57.410Z,41.40
2022-08-12T15:00:52.383Z,41.41
2022-08-12T15:03:52.668Z,41.20
2022-08-12T15:06:44.647Z,41.49
2022-08-12T15:09:12.151Z,41.24
2022-08-12T15:11:55.651Z,41.49
2022-08-12T15:14:48.097Z,41.45
2022-08-12T15:17:59.252Z,41.60
2022-08-12T15:20:43.494Z,41.35
2022-08-12T15:23:33.255Z,41.35
2022-08-12T15:26:46.575Z,41.14
2022-08-12T15:29:42.111Z,41.39
2022-08-12T15:32:17.532Z,41.18
2022-08-12T15:35:15.013Z,41.03
2022-08-12T15:38:21.573Z,41.18
2022-08-12T15:41:50.286Z,41.12
2022-08-12T15:44:42.612Z,40.98
2022-08-12T15:47:33.608Z,41.11
2022-08-12T15:50:45.628Z,40.78
2022-08-12T15:53:59.269Z,40.97
2022-08-12T15:56:56.534Z,41.20
2022-08-12T16:00:06.849Z,41.35
2022-08-12T16:03:05.388Z,41.18
2022-08-12T16:06:12.415Z,41.14
2022-08-12T16:09:31.800Z,41.45
2022-08-12T16:12:43.674Z,41.28
2022-08-12T16:16:02.872Z,41.24
2022-08-12T16:20:01.634Z,41.32
2022-08-12T16:22:23.113Z,41.49
2022-08-12T16:25:22.574Z,41.52
2022-08-12T16:28:28.288Z,41.69
2022-08-12T16:31:26.380Z,41.45
2022-08-12T16:34:26.069Z,41.70
2022-08-12T16:38:27.816Z,42.02
2022-08-12T16:40:57.328Z,42.24
2022-08-12T16:43:55.382Z,42.31
2022-08-12T16:46:57.499Z,42.53
2022-08-12T16:49:55.307Z,42.65
2022-08-12T16:52:53.247Z,42.70
2022-08-12T16:55:54.332Z,42.89
2022-08-12T16:58:54.108Z,42.83
2022-08-12T17:01:46.270Z,42.90
2022-08-12T17:04:52.979Z,42.89
2022-08-12T17:07:52.810Z,43.18
2022-08-12T17:10:53.345Z,43.31
2022-08-12T17:13:33.718Z,43.28
2022-08-12T17:16:38.128Z,43.48
2022-08-12T17:20:29.895Z,43.59
2022-08-12T17:23:04.025Z,43.58
2022-08-12T17:26:13.210Z,43.61
2022-08-12T17:29:16.506Z,43.79
2022-08-12T17:32:10.476Z,44.16
2022-08-12T17:35:36.758Z,43.96
2022-08-12T17:38:26.217Z,44.24
2022-08-12T17:41:56.250Z,44.25
2022-08-12T17:44:47.039Z,43.94
2022-08-12T17:47:38.156Z,44.07
2022-08-12T17:50:26.124Z,44.08
2022-08-12T17:53:02.559Z,44.39
2022-08-12T17:55:48.168Z,44.51
2022-08-12T17:58:35.747Z,44.55
2022-08-12T18:01:14.036Z,44.75
2022-08-12T18:04:21.875Z,44.53
2022-08-12T18:07:19.371Z,44.66
2022-08-12T18:10:36.211Z,44.71
2022-08-12T18:13:40.209Z,45.13
2022-08-12T18:16:42.087Z,45.03
2022-08-12T18:20:06.636Z,45.16
2022-08-12T18:22:56.134Z,45.35
2022-08-12T18:26:14.057Z,45.48
2022-08-12T18:29:17.264Z,45.74
2022-08-12T18:32:35.050Z,45.73
2022-08-12T18:35:46.976Z,46.02
2022-08-12T18:38:51.156Z,46.12
2022-08-12T18:41:49.375Z,46.33
2022-08-12T18:44:46.225Z,46.44
2022-08-12T18:47:49.817Z,46.36
2022-08-12T18:50:51.378Z,46.17
2022-08-12T18:54:06.528Z,46.46
2022-08-12T18:56:53.170Z,46.56
2022-08-12T19:00:01.743Z,46.54
2022-08-12T19:02:56.356Z,46.69
2022-08-12T19:05:55.167Z,46.72
2022-08-12T19:08:52.140Z,46.81
2022-08-12T19:12:07.353Z,46.65
2022-08-12T19:15:10.089Z,46.79
2022-08-12T19:18:12.964Z,46.82
2022-08-12T19:21:17.009Z,47.05
2022-08-12T19:24:36.533Z,47.12
2022-08-12T19:28:03.305Z,47.16
2022-08-12T19:31:14.303Z,47.35
2022-08-12T19:34:55.982Z,47.41
2022-08-12T19:38:06.744Z,47.39
2022-08-12T19:41:05.484Z,47.53
2022-08-12T19:44:31.874Z,47.53
2022-08-12T19:53:07.867Z,47.84
2022-08-12T19:55:44.741Z,47.81
2022-08-12T19:58:26.847Z,47.80
2022-08-12T20:01:10.864Z,47.82
2022-08-12T20:04:33.142Z,48.02
2022-08-12T20:07:24.396Z,48.05
2022-08-12T20:10:22.202Z,48.18
2022-08-12T20:13:18.952Z,48.22
2022-08-12T20:16:45.505Z,48.49
2022-08-12T20:19:52.545Z,48.42
2022-08-12T20:22:35.831Z,48.59
2022-08-12T20:25:28.537Z,48.76
2022-08-12T20:28:19.013Z,48.87
2022-08-12T20:31:16.957Z,48.90
2022-08-12T20:34:12.441Z,48.86
2022-08-12T20:36:57.411Z,48.94
2022-08-12T20:39:56.737Z,49.13
2022-08-12T20:42:46.908Z,49.26
2022-08-12T20:45:57.094Z,49.27
2022-08-12T20:48:59.965Z,49.20
2022-08-12T20:51:54.592Z,49.23
2022-08-12T20:54:58.221Z,49.43
2022-08-12T20:58:03.070Z,49.55
2022-08-12T21:01:00.419Z,49.59
2022-08-12T21:04:03.297Z,49.63
2022-08-12T21:07:08.187Z,49.67
2022-08-12T21:10:29.128Z,49.66
2022-08-12T21:13:20.634Z,50.01
2022-08-12T21:16:06.517Z,49.99
2022-08-12T21:19:01.602Z,50.05
2022-08-12T21:21:50.494Z,50.19
2022-08-12T21:25:02.512Z,50.23
2022-08-12T21:28:58.321Z,50.31
2022-08-12T21:32:37.031Z,50.27
2022-08-12T21:34:57.434Z,50.29
2022-08-12T21:37:37.486Z,50.40
2022-08-12T21:40:37.714Z,50.55
2022-08-12T21:43:45.176Z,50.52
2022-08-12T21:46:35.017Z,50.70
2022-08-12T21:49:54.637Z,50.78
2022-08-12T21:52:43.179Z,50.83
2022-08-12T21:55:33.212Z,50.77
2022-08-12T21:58:21.554Z,50.87
2022-08-12T22:04:23.935Z,50.63
2022-08-12T22:07:01.999Z,50.84
2022-08-12T22:09:43.044Z,50.84
2022-08-12T22:12:37.740Z,50.89
2022-08-12T22:15:27.096Z,51.11
2022-08-12T22:18:24.082Z,51.16
2022-08-12T22:21:15.661Z,51.03
2022-08-12T22:24:05.924Z,51.09
2022-08-12T22:26:54.356Z,51.14
2022-08-12T22:29:47.373Z,51.25
2022-08-12T22:32:50.064Z,51.43
2022-08-12T22:35:55.439Z,51.53
2022-08-12T22:38:54.016Z,51.48
2022-08-12T22:42:07.145Z,51.42
2022-08-12T22:45:23.048Z,51.79
2022-08-12T22:48:26.416Z,51.60
2022-08-12T22:51:24.209Z,51.82
2022-08-12T22:54:36.054Z,51.71
2022-08-12T22:57:20.964Z,51.76
2022-08-12T23:00:27.039Z,51.95
2022-08-12T23:03:48.930Z,52.08
2022-08-12T23:06:38.015Z,52.26
2022-08-12T23:09:44.685Z,52.05
2022-08-12T23:12:58.576Z,52.26
2022-08-12T23:15:47.577Z,52.40
2022-08-12T23:18:35.273Z,52.66
2022-08-12T23:22:04.512Z,52.54
2022-08-12T23:24:38.880Z,52.77
2022-08-12T23:27:55.771Z,52.62
2022-08-12T23:30:52.922Z,52.79
2022-08-12T23:34:01.989Z,52.83
2022-08-12T23:37:01.054Z,52.98
2022-08-12T23:40:13.261Z,52.99
2022-08-12T23:43:12.815Z,53.02
2022-08-12T23:46:00.550Z,53.19
2022-08-12T23:48:58.972Z,53.17
2022-08-12T23:51:57.984Z,53.29
2022-08-12T23:54:58.345Z,53.30
2022-08-12T23:58:17.854Z,53.32
